Pagrindinis puslapis
METAR-TAF:

METAR-TAF

Oro uostai :

Kuveitas, Kuveitas

platuma: 29-13N, ilguma: 047-59E, Aukštis: 55 m

Dabartinis oras

Ataskaita buvo paskelbta 33 minutes, ne 07:00 UTC
Vėjas 6 kt iš Pietvakarių
Temperatūra 42°C
Drėgmė 9%
Slėgis 1005 hPa
Matomumas: 6000 m
Giedras dangus

METAR: OKBK 140700Z 23006KT 6000 SKC 42/03 Q1005 NOSIG

Laikas: 10:33 (07:33 UTC)

Prognozė

Ataskaita buvo paskelbta 2 valandos ir 48 minutes, ne 04:45 UTC
Prognozė galioja nuo 14 metu 06 UTC su 15 metu 12 UTC
Vėjas 10 kt iš Pietvakarių
Matomumas: 7000 m
Laikinai
nuo 14 metu 06 UTC su 14 metu 18 UTC
Vėjas 3 kt nuo kintamojo kryptimis
Tapsmas
nuo 15 metu 00 UTC su 15 metu 02 UTC
Vėjas 10 kt iš Šiaurės/Šiaurės Vakarų su gūsio iki 20 kt

TAF: OKBK 140445Z 1406/1512 23010KT 7000 NSC TEMPO 1406/1418 VRB03KT BECMG 1500/1502 34010G20KT

Orai ataskaitas ir orų prognozės (METAR, TAF).

turimą stotys yra geltonos ir raudonos taškus žemėlapyje.

Perkelti pele per norėdami pamatyti stoties vardą.

Tada spustelėkite, norėdami matyti oro stebėjimo ir prognozės.

Norėdami pakeisti žemėlapį: spustelėkite ant žalios mygtukų su juodo kryžiaus žemyn,; žalią mygtuką su brūkšneliu, jei norite nutolinti; arba žalių rodyklių gretimoms žemėlapius.


METAR-TAF: